Ana Sayfa
METAR-TAF:

METAR-TAF

Havaalanları :

Taiyuan, Çin

Enlem: 37-47N, Boylam: 112-33E, yükseklik: 779 m

Güncel hava durumu gözlemi

Rapor saat 15:00 UTC de 35 dakika önce yapıldı.
Rüzgar değişken yönden 2 kt
Sıcaklık 25°C
Nem 79%
Basınç 1003 hPa
Görüş mesafesi 10 km veya daha fazla
4000 ft yükseklikte parçalı bulutlu

METAR: ZBYN 241500Z VRB01MPS 9999 SCT040 25/21 Q1003 NOSIG

Saat: 23:35 (15:35 UTC)

Tahmin

Rapor saat 09:05 UTC de 6 saat ve 30 dakika önce yapıldı.
Ayın 24'si saat 12 UTC'den ayın 25'si saat 12 UTC'ye kadar geçerli Tahmin
Rüzgar kuzeydan 8 kt
Görüş mesafesi: 6000 m
4000 ft yükseklikte parçalı bulutlu
Dönüşüyor
ayın 24'si saat 14 UTC'den ayın 24'si saat 15 UTC'ye kadar
sağanak yağmurlar
Dönüşüyor
ayın 24'si saat 20 UTC'den ayın 24'si saat 21 UTC'ye kadar
Pus,

TAF: ZBYN 240905Z 2412/2512 36004MPS 6000 SCT040 TX32/2507Z TN23/2421Z BECMG 2414/2415 SHRA BECMG 2420/2421 BR

4.000'den fazla havaalanı için hava durumu gözlemleri ve tahminleri (METAR ve TAF raporları).

Kullanılabilir istasyonlar harita üzerinde sarı ve kırmızı noktalarla gösterilir.

İstasyonun adını görmek için fareyi noktanın üzerinde gezdirin.

Sonrasında hava gözlem ve tahminlerini görmek için tıklayın.

Haritayı değiştirmek için: yaklaştırmak için siyah artı işaretli yeşil düğmeye ve uzaklaştırmak için de eksi işaretli düğmeye hızla tıklayın; bitişik haritalar için yeşil okları kullanın.


METAR-TAF: